Time;durP1;ratioP1;P1;durP2;ratioP2;P2;SDS_P1;SDS_P2;PMS_P1;PMS_P2;Temp;Humidity;BMP_temperature;BMP_pressure;BME280_temperature;BME280_humidity;BME280_pressure;Samples;Min_cycle;Max_cycle;Signal;HPM_P1;HPM_P2
2023/08/20 00:02:19;;;;;;;;;;;;;;;26.80;49.77;102082.22;5010555;28;20342;-63
2023/08/20 00:04:45;;;;;;;;;;;;;;;26.79;49.47;102088.59;5000853;28;20363;-65
2023/08/20 00:07:10;;;;;;;;;;;;;;;26.82;49.60;102093.53;5010797;28;19932;-65
2023/08/20 00:09:36;;;;;;;;;;;;;;;26.79;49.25;102086.75;4959534;28;19920;-65
2023/08/20 00:12:03;;;;;;;;;;;;;;;26.79;49.38;102089.41;5043234;28;20505;-65
2023/08/20 00:14:47;;;;;;;;;;;;;;;26.80;49.34;102087.56;4960601;28;19940;-67
2023/08/20 00:17:12;;;;;;;;;;;;;;;26.80;49.18;102096.41;5008592;28;20670;-67
2023/08/20 00:19:38;;;;;;;;;;;;;;;26.79;49.58;102097.44;4957651;28;19920;-65
2023/08/20 00:22:03;;;;;;;;;;;;;;;26.80;49.29;102088.38;4998228;28;20280;-63
2023/08/20 00:24:29;;;;;;;;;;;;;;;26.79;49.41;102094.75;5018332;28;19956;-63
2023/08/20 00:26:54;;;;;;;;;;;;;;;26.78;49.25;102102.97;4953353;28;20349;-63
2023/08/20 00:29:19;;;;;;;;;;;;;;;26.79;49.47;102097.44;5010314;28;20671;-66
2023/08/20 00:31:45;;;;;;;;;;;;;;;26.79;49.21;102096.59;4957084;28;20380;-64
2023/08/20 00:34:10;;;;;;;;;;;;;;;26.82;49.06;102104.22;5018156;28;19998;-65
2023/08/20 00:36:35;;;;;;;;;;;;;;;26.79;49.05;102100.09;4961531;28;19953;-66
2023/08/20 00:39:01;;;;;;;;;;;;;;;26.82;49.36;102103.41;5014842;28;19925;-63
2023/08/20 00:41:26;;;;;;;;;;;;;;;26.80;49.23;102108.94;4941490;28;20491;-64
2023/08/20 00:43:51;;;;;;;;;;;;;;;26.78;49.56;102108.31;5035749;28;19929;-64
2023/08/20 00:46:17;;;;;;;;;;;;;;;26.77;49.57;102096.81;5005579;28;19925;-64
2023/08/20 00:48:42;;;;;;;;;;;;;;;26.78;49.21;102106.47;4956055;28;19931;-64
2023/08/20 00:51:08;;;;;;;;;;;;;;;26.79;49.38;102107.31;5016344;28;19924;-64
2023/08/20 00:53:33;;;;;;;;;;;;;;;26.79;49.18;102113.47;4956649;28;20057;-64
2023/08/20 00:55:58;;;;;;;;;;;;;;;26.80;49.17;102122.31;5013714;28;19920;-64
2023/08/20 00:58:24;;;;;;;;;;;;;;;26.78;49.12;102111.00;4965259;28;20393;-64
2023/08/20 01:00:50;;;;;;;;;;;;;;;26.76;49.15;102108.50;5021299;28;19948;-64
2023/08/20 01:03:15;;;;;;;;;;;;;;;26.76;49.08;102119.22;4964996;28;19932;-64
2023/08/20 01:05:46;;;;;;;;;;;;;;;26.81;48.94;102121.28;4996664;28;19928;-64
2023/08/20 01:08:23;;;;;;;;;;;;;;;26.81;49.33;102118.63;5016025;28;19921;-64
2023/08/20 01:10:51;;;;;;;;;;;;;;;26.77;49.32;102112.84;4977573;28;20505;-64
2023/08/20 01:13:16;;;;;;;;;;;;;;;26.76;49.22;102110.38;5019633;28;20395;-63
2023/08/20 01:15:42;;;;;;;;;;;;;;;26.77;49.27;102115.50;4979965;28;19957;-63
2023/08/20 01:18:12;;;;;;;;;;;;;;;26.78;49.29;102116.34;5053604;28;19917;-63
2023/08/20 01:20:43;;;;;;;;;;;;;;;26.67;49.16;102098.16;4991308;28;23312;-63
2023/08/20 01:23:24;;;;;;;;;;;;;;;26.79;48.84;102118.00;5024286;28;20264;-64
2023/08/20 01:25:49;;;;;;;;;;;;;;;26.79;48.82;102120.66;4978666;28;20683;-64
2023/08/20 01:28:23;;;;;;;;;;;;;;;26.78;49.14;102125.19;5021074;28;20387;-64
2023/08/20 01:30:49;;;;;;;;;;;;;;;26.79;48.95;102124.16;5013397;28;19916;-64
2023/08/20 01:33:15;;;;;;;;;;;;;;;26.80;49.04;102125.81;5020150;28;19924;-64
2023/08/20 01:35:40;;;;;;;;;;;;;;;26.78;48.79;102122.50;4958287;28;19939;-64
2023/08/20 01:38:14;;;;;;;;;;;;;;;26.78;48.83;102137.72;5022750;28;19923;-63
2023/08/20 01:40:39;;;;;;;;;;;;;;;26.78;48.94;102135.03;4970409;28;19916;-67
2023/08/20 01:43:05;;;;;;;;;;;;;;;26.78;48.94;102137.72;5017335;28;19925;-67
2023/08/20 01:45:30;;;;;;;;;;;;;;;26.78;48.80;102143.06;4968896;28;19928;-67
2023/08/20 01:47:55;;;;;;;;;;;;;;;26.78;48.89;102148.41;5018321;28;19928;-67
2023/08/20 01:50:21;;;;;;;;;;;;;;;26.78;49.21;102151.91;5003675;28;20617;-65
2023/08/20 01:52:46;;;;;;;;;;;;;;;26.78;48.86;102161.78;5020004;28;19975;-65
2023/08/20 01:55:12;;;;;;;;;;;;;;;26.77;48.92;102149.44;4960511;28;20374;-63
2023/08/20 01:57:37;;;;;;;;;;;;;;;26.76;49.15;102151.28;5020441;28;19925;-63
2023/08/20 02:00:08;;;;;;;;;;;;;;;26.79;48.83;102158.06;4962425;28;20019;-65
2023/08/20 02:02:39;;;;;;;;;;;;;;;26.80;49.13;102155.19;5027960;28;20336;-65
2023/08/20 02:05:04;;;;;;;;;;;;;;;26.77;48.78;102155.59;4994355;28;19932;-63
2023/08/20 02:07:30;;;;;;;;;;;;;;;26.77;48.72;102152.09;5001669;28;19916;-63
2023/08/20 02:09:55;;;;;;;;;;;;;;;26.79;48.67;102161.56;5018046;28;19917;-63
2023/08/20 02:12:21;;;;;;;;;;;;;;;26.75;49.05;102162.13;4969046;28;20365;-63
2023/08/20 02:14:46;;;;;;;;;;;;;;;26.73;48.83;102161.50;5011993;28;19925;-63
2023/08/20 02:17:15;;;;;;;;;;;;;;;26.76;48.78;102161.13;4958803;28;19921;-64
2023/08/20 02:19:40;;;;;;;;;;;;;;;26.76;48.77;102166.47;5012749;28;21690;-63
2023/08/20 02:22:05;;;;;;;;;;;;;;;26.75;49.25;102176.34;4956614;28;19925;-65
2023/08/20 02:24:31;;;;;;;;;;;;;;;26.76;48.70;102174.50;4996708;28;19924;-67
2023/08/20 02:26:56;;;;;;;;;;;;;;;26.75;48.83;102176.34;5011605;28;19917;-68
2023/08/20 02:29:22;;;;;;;;;;;;;;;26.74;48.72;102173.84;4958185;28;19939;-67
2023/08/20 02:31:47;;;;;;;;;;;;;;;26.78;48.67;102180.47;5013822;28;19917;-67
2023/08/20 02:34:15;;;;;;;;;;;;;;;26.76;48.90;102180.66;4957362;28;19923;-65
2023/08/20 02:36:40;;;;;;;;;;;;;;;26.76;48.67;102174.50;5015866;28;19925;-67
2023/08/20 02:39:07;;;;;;;;;;;;;;;26.77;48.64;102176.97;4950794;28;19921;-65
2023/08/20 02:41:37;;;;;;;;;;;;;;;26.77;48.63;102173.47;5043614;28;19967;-65
2023/08/20 02:44:03;;;;;;;;;;;;;;;26.76;48.86;102161.13;4992354;28;20410;-65
2023/08/20 02:46:29;;;;;;;;;;;;;;;26.74;48.66;102158.63;5015051;28;19952;-65
2023/08/20 02:48:56;;;;;;;;;;;;;;;26.75;48.73;102152.28;4963365;28;19964;-66
2023/08/20 02:51:22;;;;;;;;;;;;;;;26.76;48.67;102142.44;4999343;28;20573;-67
2023/08/20 02:53:48;;;;;;;;;;;;;;;26.74;49.03;102134.56;4986351;28;20789;-67
2023/08/20 02:56:13;;;;;;;;;;;;;;;26.76;49.02;102126.41;5018651;28;19916;-67
2023/08/20 02:58:43;;;;;;;;;;;;;;;26.75;48.91;102124.72;4960778;28;22024;-65
2023/08/20 03:01:17;;;;;;;;;;;;;;;26.76;48.78;102123.72;5023970;28;19913;-65
2023/08/20 03:03:43;;;;;;;;;;;;;;;26.72;48.60;102117.91;5021421;28;21275;-65
2023/08/20 03:06:08;;;;;;;;;;;;;;;26.75;48.70;102117.56;5015517;28;20688;-66
2023/08/20 03:08:34;;;;;;;;;;;;;;;26.71;48.56;102115.44;4960366;28;20821;-68
2023/08/20 03:10:59;;;;;;;;;;;;;;;26.74;48.65;102113.19;5015648;28;20008;-69
2023/08/20 03:13:24;;;;;;;;;;;;;;;26.74;48.55;102110.53;4963320;28;19922;-67
2023/08/20 03:15:50;;;;;;;;;;;;;;;26.75;48.48;102108.69;5017977;28;19913;-67
2023/08/20 03:18:15;;;;;;;;;;;;;;;26.76;48.56;102116.53;4960532;28;19917;-66
2023/08/20 03:20:40;;;;;;;;;;;;;;;26.74;48.61;102117.72;5021185;28;19954;-65
2023/08/20 03:23:06;;;;;;;;;;;;;;;26.76;48.46;102121.06;4964755;28;20351;-62
2023/08/20 03:25:31;;;;;;;;;;;;;;;26.76;48.72;102116.53;5018189;28;19929;-63
2023/08/20 03:27:57;;;;;;;;;;;;;;;26.75;48.77;102114.88;5002253;28;19925;-63
2023/08/20 03:30:22;;;;;;;;;;;;;;;26.73;48.57;102118.75;5021199;28;20424;-62
2023/08/20 03:32:47;;;;;;;;;;;;;;;26.75;48.67;102117.56;4956314;28;19920;-63
2023/08/20 03:35:13;;;;;;;;;;;;;;;26.75;48.52;102122.03;5016514;28;19924;-63
2023/08/20 03:37:38;;;;;;;;;;;;;;;26.75;48.37;102120.22;4967297;28;19921;-67
2023/08/20 03:40:04;;;;;;;;;;;;;;;26.74;48.39;102118.53;5009137;28;19921;-67
2023/08/20 03:42:30;;;;;;;;;;;;;;;26.73;48.60;102114.22;4966268;28;19927;-64
2023/08/20 03:44:56;;;;;;;;;;;;;;;26.72;48.81;102117.09;5020365;28;19972;-64
2023/08/20 03:47:21;;;;;;;;;;;;;;;26.76;48.37;102113.03;4987394;28;19921;-67
2023/08/20 03:49:50;;;;;;;;;;;;;;;26.73;48.36;102118.75;4998854;28;19967;-67
2023/08/20 03:52:15;;;;;;;;;;;;;;;26.74;48.44;102125.75;5002904;28;19924;-67
2023/08/20 03:54:42;;;;;;;;;;;;;;;26.72;48.72;102123.25;4962986;28;19924;-65
2023/08/20 03:57:07;;;;;;;;;;;;;;;26.75;48.31;102133.59;5045514;28;19920;-65
2023/08/20 03:59:32;;;;;;;;;;;;;;;26.76;48.38;102126.41;4960740;28;19917;-63
2023/08/20 04:01:58;;;;;;;;;;;;;;;26.72;48.57;102130.47;5014396;28;19921;-63
2023/08/20 04:04:25;;;;;;;;;;;;;;;26.72;48.48;102130.47;4955522;28;19925;-67
2023/08/20 04:06:51;;;;;;;;;;;;;;;26.69;48.54;102137.03;5012639;28;20048;-67
2023/08/20 04:09:16;;;;;;;;;;;;;;;26.71;48.88;102134.16;4964154;28;19921;-66
2023/08/20 04:11:42;;;;;;;;;;;;;;;26.72;48.25;102136.63;5013479;28;19924;-66
2023/08/20 04:14:09;;;;;;;;;;;;;;;26.74;48.44;102139.09;4991504;28;19917;-63
2023/08/20 04:16:34;;;;;;;;;;;;;;;26.74;48.60;102157.81;5012711;28;20741;-63
2023/08/20 04:19:00;;;;;;;;;;;;;;;26.71;48.50;102152.84;4956466;28;20091;-69
2023/08/20 04:21:25;;;;;;;;;;;;;;;26.73;48.36;102158.81;5043819;28;20099;-67
2023/08/20 04:23:50;;;;;;;;;;;;;;;26.73;48.67;102164.16;4962650;28;20003;-68
2023/08/20 04:26:16;;;;;;;;;;;;;;;26.72;48.64;102163.34;5020709;28;21257;-67
2023/08/20 04:28:41;;;;;;;;;;;;;;;26.72;48.45;102171.38;4962487;28;19973;-67
2023/08/20 04:31:07;;;;;;;;;;;;;;;26.73;48.14;102167.66;5014388;28;20438;-67
2023/08/20 04:33:47;;;;;;;;;;;;;;;26.71;48.65;102169.72;4961185;28;19926;-67
2023/08/20 04:36:16;;;;;;;;;;;;;;;26.72;48.51;102167.88;5010532;28;19964;-67
2023/08/20 04:38:42;;;;;;;;;;;;;;;26.72;48.61;102176.72;4997631;28;20031;-67
2023/08/20 04:41:07;;;;;;;;;;;;;;;26.72;48.57;102170.53;5011222;28;19925;-67
2023/08/20 04:43:33;;;;;;;;;;;;;;;26.71;48.55;102177.72;4956341;28;20287;-67
2023/08/20 04:46:00;;;;;;;;;;;;;;;26.72;48.51;102179.38;5006953;28;19928;-68
2023/08/20 04:48:27;;;;;;;;;;;;;;;26.71;48.71;102180.41;4991671;28;19931;-63
2023/08/20 04:50:53;;;;;;;;;;;;;;;26.72;48.51;102182.06;5010245;28;19924;-63
2023/08/20 04:53:18;;;;;;;;;;;;;;;26.47;48.08;102143.41;4950517;28;21124;-63
2023/08/20 04:55:45;;;;;;;;;;;;;;;26.74;48.53;102188.03;5012202;28;20079;-62
2023/08/20 04:58:11;;;;;;;;;;;;;;;26.72;48.18;102190.06;4954960;28;20588;-65
2023/08/20 05:00:36;;;;;;;;;;;;;;;26.72;48.03;102191.91;5010412;28;19924;-63
2023/08/20 05:03:05;;;;;;;;;;;;;;;26.73;48.18;102180.19;4996756;28;19921;-63
2023/08/20 05:05:31;;;;;;;;;;;;;;;26.59;48.45;102165.94;5017370;28;19927;-63
2023/08/20 05:07:56;;;;;;;;;;;;;;;26.73;48.46;102185.56;4961704;28;20367;-66
2023/08/20 05:10:22;;;;;;;;;;;;;;;26.73;48.28;102186.38;5017465;28;20119;-65
2023/08/20 05:12:48;;;;;;;;;;;;;;;26.72;48.39;102205.28;4987087;28;20398;-67
2023/08/20 05:15:14;;;;;;;;;;;;;;;26.70;48.30;102202.81;5012698;28;20008;-68
2023/08/20 05:17:41;;;;;;;;;;;;;;;26.72;48.24;102200.75;4977822;28;20421;-68
2023/08/20 05:20:07;;;;;;;;;;;;;;;26.71;48.02;102200.94;4994892;28;19917;-66
2023/08/20 05:22:44;;;;;;;;;;;;;;;26.54;48.31;102171.00;4985142;28;19918;-65
2023/08/20 05:25:10;;;;;;;;;;;;;;;26.71;48.42;102203.63;4991356;28;19931;-68
2023/08/20 05:27:36;;;;;;;;;;;;;;;26.75;48.01;102208.41;5020371;28;19921;-67
2023/08/20 05:30:03;;;;;;;;;;;;;;;26.71;48.23;102207.13;4957591;28;20318;-67
2023/08/20 05:32:29;;;;;;;;;;;;;;;26.71;48.26;102206.28;5008420;28;19926;-67
2023/08/20 05:34:56;;;;;;;;;;;;;;;26.71;48.44;102204.44;4955218;28;19921;-67
2023/08/20 05:37:21;;;;;;;;;;;;;;;26.71;47.94;102215.13;5012414;28;19925;-67
2023/08/20 05:39:47;;;;;;;;;;;;;;;26.70;48.31;102218.81;4947330;28;19920;-66
2023/08/20 05:42:13;;;;;;;;;;;;;;;26.69;48.40;102214.50;4999654;28;20294;-66
2023/08/20 05:44:43;;;;;;;;;;;;;;;26.70;48.18;102212.66;4951168;28;20048;-67
2023/08/20 05:47:11;;;;;;;;;;;;;;;26.70;48.00;102220.69;4997961;28;19925;-67
2023/08/20 05:49:37;;;;;;;;;;;;;;;26.69;48.13;102217.19;5002748;28;19925;-67
2023/08/20 05:52:03;;;;;;;;;;;;;;;26.71;48.36;102208.97;4991091;28;20051;-67
2023/08/20 05:54:29;;;;;;;;;;;;;;;26.70;48.05;102212.66;5009517;28;19928;-67
2023/08/20 05:56:57;;;;;;;;;;;;;;;26.58;47.84;102182.16;4951649;28;20673;-67
2023/08/20 05:59:22;;;;;;;;;;;;;;;26.69;48.33;102211.84;5007009;28;19917;-67
2023/08/20 06:01:48;;;;;;;;;;;;;;;26.73;47.91;102209.59;4946234;28;21548;-67
2023/08/20 06:04:13;;;;;;;;;;;;;;;26.75;48.16;102208.41;5018849;28;20020;-67
2023/08/20 06:06:40;;;;;;;;;;;;;;;26.57;47.89;102189.34;4969082;28;20555;-69
2023/08/20 06:09:07;;;;;;;;;;;;;;;26.69;48.20;102211.84;5006198;28;19975;-69
2023/08/20 06:11:35;;;;;;;;;;;;;;;26.60;48.03;102196.16;4988386;28;19925;-69
2023/08/20 06:14:00;;;;;;;;;;;;;;;26.72;47.95;102219.47;5000852;28;20299;-69
2023/08/20 06:16:25;;;;;;;;;;;;;;;26.71;47.87;102209.78;4951912;28;19925;-66
2023/08/20 06:18:51;;;;;;;;;;;;;;;26.72;47.76;102208.78;5005261;28;19932;-66
2023/08/20 06:21:16;;;;;;;;;;;;;;;26.72;48.05;102214.13;4950001;28;19929;-63
2023/08/20 06:23:42;;;;;;;;;;;;;;;26.71;47.98;102204.44;5002599;28;19963;-64
2023/08/20 06:26:07;;;;;;;;;;;;;;;26.72;47.81;102206.09;4948191;28;21392;-67
2023/08/20 06:28:33;;;;;;;;;;;;;;;26.70;48.28;102204.66;4988866;28;20366;-68
2023/08/20 06:30:58;;;;;;;;;;;;;;;26.69;47.90;102206.50;5006218;28;19999;-68
2023/08/20 06:33:23;;;;;;;;;;;;;;;26.71;47.83;102201.78;4951996;28;20387;-68
2023/08/20 06:35:49;;;;;;;;;;;;;;;26.70;47.89;102205.47;5010793;28;20030;-69
2023/08/20 06:38:14;;;;;;;;;;;;;;;26.72;47.86;102199.94;4947914;28;19920;-68
2023/08/20 06:40:40;;;;;;;;;;;;;;;26.75;48.24;102199.53;5004681;28;21253;-67
2023/08/20 06:43:05;;;;;;;;;;;;;;;26.75;48.01;102208.41;4953498;28;20684;-67
2023/08/20 06:45:30;;;;;;;;;;;;;;;26.75;48.16;102211.09;5013701;28;20268;-67
2023/08/20 06:47:57;;;;;;;;;;;;;;;26.75;47.81;102211.09;4995028;28;20269;-64
2023/08/20 06:50:22;;;;;;;;;;;;;;;26.75;48.10;102212.91;5005125;28;19929;-64
2023/08/20 06:52:48;;;;;;;;;;;;;;;26.78;47.99;102217.88;4953145;28;21447;-68
2023/08/20 06:55:13;;;;;;;;;;;;;;;26.77;48.16;102219.72;5010715;28;20341;-72
2023/08/20 06:57:45;;;;;;;;;;;;;;;26.80;48.22;102223.84;4973360;28;19922;-69
2023/08/20 07:00:10;;;;;;;;;;;;;;;26.78;48.40;102217.88;5007530;28;21613;-68
2023/08/20 07:02:36;;;;;;;;;;;;;;;26.83;48.21;102219.97;4974889;28;19920;-67
2023/08/20 07:05:03;;;;;;;;;;;;;;;26.87;47.86;102229.25;5002931;28;19922;-67
2023/08/20 07:07:39;;;;;;;;;;;;;;;26.85;48.21;102233.97;4991775;28;19924;-67
2023/08/20 07:10:08;;;;;;;;;;;;;;;26.88;48.26;102230.91;5007844;28;19917;-65
2023/08/20 07:12:33;;;;;;;;;;;;;;;26.90;48.26;102220.84;4995508;28;20012;-68
2023/08/20 07:14:58;;;;;;;;;;;;;;;26.91;48.25;102223.31;5014325;28;19985;-65
2023/08/20 07:17:24;;;;;;;;;;;;;;;26.93;48.06;102225.78;4944038;28;20346;-66
2023/08/20 07:19:49;;;;;;;;;;;;;;;26.95;48.02;102226.47;5009826;28;20556;-69
2023/08/20 07:22:15;;;;;;;;;;;;;;;26.96;48.01;102233.44;4950629;28;19952;-65
2023/08/20 07:24:40;;;;;;;;;;;;;;;26.97;48.22;102233.25;5014391;28;19924;-64
2023/08/20 07:27:10;;;;;;;;;;;;;;;26.97;48.43;102232.44;4958958;28;20411;-64
2023/08/20 07:29:36;;;;;;;;;;;;;;;26.98;48.09;102237.59;5023331;28;20494;-64
2023/08/20 07:32:03;;;;;;;;;;;;;;;27.00;48.12;102232.06;4999866;28;19925;-66
2023/08/20 07:34:28;;;;;;;;;;;;;;;27.03;47.96;102237.84;5014500;28;19979;-66
2023/08/20 07:36:54;;;;;;;;;;;;;;;27.01;48.31;102231.88;4957206;28;20055;-68
2023/08/20 07:39:19;;;;;;;;;;;;;;;27.04;48.44;102227.97;5048382;28;19925;-69
2023/08/20 07:41:44;;;;;;;;;;;;;;;27.03;48.33;102237.84;4963992;28;19984;-68
2023/08/20 07:44:10;;;;;;;;;;;;;;;27.07;48.32;102233.75;5041371;28;20016;-68
2023/08/20 07:46:35;;;;;;;;;;;;;;;27.08;48.44;102235.41;4954982;28;19971;-68
2023/08/20 07:49:00;;;;;;;;;;;;;;;27.08;48.21;102232.75;5001316;28;19921;-68
2023/08/20 07:51:26;;;;;;;;;;;;;;;27.13;48.41;102232.19;4959560;28;19928;-68
2023/08/20 08:01:04;;;;;;;;;;;;;;;27.13;48.34;102228.69;4954924;28;19999;-65
2023/08/20 08:04:02;;;;;;;;;;;;;;;27.18;48.95;102232.41;5006139;28;19999;-65
2023/08/20 08:06:27;;;;;;;;;;;;;;;27.18;48.84;102229.72;4951216;28;19996;-67
2023/08/20 08:08:53;;;;;;;;;;;;;;;27.12;48.42;102230.53;5006265;28;20397;-67
2023/08/20 08:11:18;;;;;;;;;;;;;;;27.07;48.90;102230.25;4956022;28;20360;-65
2023/08/20 08:13:43;;;;;;;;;;;;;;;27.02;48.91;102233.53;5010205;28;20540;-64
2023/08/20 08:16:09;;;;;;;;;;;;;;;27.02;49.32;102232.69;4962725;28;20517;-66
2023/08/20 08:18:34;;;;;;;;;;;;;;;26.92;49.15;102233.00;4996273;28;20491;-63
2023/08/20 08:21:00;;;;;;;;;;;;;;;26.88;49.24;102234.41;5005655;28;19925;-63
2023/08/20 08:23:25;;;;;;;;;;;;;;;27.09;49.25;102236.25;5014862;28;20371;-66
2023/08/20 08:25:50;;;;;;;;;;;;;;;27.20;48.65;102241.06;4962753;28;20012;-65
2023/08/20 08:28:18;;;;;;;;;;;;;;;26.84;49.34;102206.41;5014120;28;19939;-66
2023/08/20 08:30:47;;;;;;;;;;;;;;;26.95;49.50;102237.97;4969737;28;19927;-66
2023/08/20 08:33:12;;;;;;;;;;;;;;;26.94;49.33;102243.50;5018741;28;20307;-66
2023/08/20 08:35:37;;;;;;;;;;;;;;;26.87;48.52;102247.97;4954815;28;19991;-65
2023/08/20 08:38:04;;;;;;;;;;;;;;;26.86;48.31;102243.63;5021270;28;19917;-65
2023/08/20 08:40:30;;;;;;;;;;;;;;;26.81;48.09;102249.56;4959191;28;21036;-66
2023/08/20 08:42:55;;;;;;;;;;;;;;;26.79;48.39;102246.25;5000762;28;19970;-65
2023/08/20 08:45:21;;;;;;;;;;;;;;;26.79;48.42;102255.09;5046015;28;19921;-65
2023/08/20 08:47:47;;;;;;;;;;;;;;;26.75;47.89;102253.84;4973187;28;19956;-65
2023/08/20 08:50:13;;;;;;;;;;;;;;;26.76;47.81;102260.00;5011518;28;19960;-65
2023/08/20 08:52:39;;;;;;;;;;;;;;;26.68;47.68;102260.13;4963181;28;20598;-64
2023/08/20 08:55:08;;;;;;;;;;;;;;;26.71;48.02;102252.56;5025151;28;19917;-65
2023/08/20 08:57:33;;;;;;;;;;;;;;;26.67;47.71;102248.63;4966820;28;20264;-68
2023/08/20 08:59:59;;;;;;;;;;;;;;;26.70;48.10;102250.06;5055470;28;19931;-69
2023/08/20 09:02:24;;;;;;;;;;;;;;;26.64;47.65;102259.69;4999082;28;20398;-68
2023/08/20 09:04:50;;;;;;;;;;;;;;;26.66;47.46;102256.81;5045637;28;20498;-68
2023/08/20 09:07:16;;;;;;;;;;;;;;;26.68;47.65;102265.47;4962938;28;19924;-67
2023/08/20 09:09:43;;;;;;;;;;;;;;;26.68;47.43;102266.28;5020711;28;20151;-69
2023/08/20 09:12:18;;;;;;;;;;;;;;;26.67;47.42;102269.16;4958491;28;20448;-68
2023/08/20 09:14:48;;;;;;;;;;;;;;;26.64;47.57;102281.06;5019978;28;19917;-69
2023/08/20 09:17:13;;;;;;;;;;;;;;;26.65;47.30;102276.53;4961866;28;19917;-68
2023/08/20 09:19:39;;;;;;;;;;;;;;;26.63;47.69;102286.59;5025009;28;19917;-70
2023/08/20 09:22:04;;;;;;;;;;;;;;;26.63;47.68;102284.75;4964934;28;20414;-65
2023/08/20 09:24:39;;;;;;;;;;;;;;;26.66;47.06;102287.03;5001546;28;19931;-65
2023/08/20 09:27:05;;;;;;;;;;;;;;;26.63;47.39;102283.94;5030268;28;19913;-64
2023/08/20 09:29:49;;;;;;;;;;;;;;;26.67;47.28;102279.84;4998760;28;19987;-68
2023/08/20 09:32:16;;;;;;;;;;;;;;;26.63;47.15;102279.41;5025118;28;19924;-69
2023/08/20 09:34:43;;;;;;;;;;;;;;;26.63;47.18;102287.44;4969274;28;20316;-68
2023/08/20 09:37:09;;;;;;;;;;;;;;;26.59;47.40;102283.50;5019780;28;19928;-68
2023/08/20 09:39:36;;;;;;;;;;;;;;;26.45;47.09;102255.81;4977226;28;19921;-68
2023/08/20 09:42:03;;;;;;;;;;;;;;;26.60;46.85;102285.13;5025580;28;20295;-68
2023/08/20 09:44:33;;;;;;;;;;;;;;;26.61;47.26;102276.09;5012256;28;20015;-68
2023/08/20 09:47:02;;;;;;;;;;;;;;;26.63;47.42;102282.09;4992799;28;19931;-68
2023/08/20 09:49:29;;;;;;;;;;;;;;;26.65;47.53;102281.88;5002812;28;19913;-65
2023/08/20 09:51:56;;;;;;;;;;;;;;;26.60;47.26;102287.81;5026138;28;19917;-65
2023/08/20 09:54:27;;;;;;;;;;;;;;;26.57;47.41;102280.19;4965101;28;19913;-65
2023/08/20 09:56:58;;;;;;;;;;;;;;;26.60;46.95;102289.66;5015016;28;20012;-65
2023/08/20 09:59:24;;;;;;;;;;;;;;;26.59;47.21;102288.81;4983337;28;19999;-65
2023/08/20 10:01:50;;;;;;;;;;;;;;;26.52;47.08;102292.44;5016065;28;20478;-65
2023/08/20 10:04:16;;;;;;;;;;;;;;;26.60;46.85;102295.81;4969079;28;19929;-64
2023/08/20 10:06:42;;;;;;;;;;;;;;;26.57;46.93;102295.34;5015703;28;19933;-65
2023/08/20 10:09:08;;;;;;;;;;;;;;;26.61;47.31;102286.78;4964185;28;20454;-64
2023/08/20 10:11:34;;;;;;;;;;;;;;;26.61;47.28;102284.13;5000381;28;20362;-65
2023/08/20 10:13:59;;;;;;;;;;;;;;;26.59;47.41;102286.16;5016919;28;19974;-64
2023/08/20 10:16:27;;;;;;;;;;;;;;;26.59;47.18;102294.19;4957417;28;19943;-64
2023/08/20 10:18:55;;;;;;;;;;;;;;;26.58;46.59;102292.53;5023340;28;19924;-64
2023/08/20 10:21:25;;;;;;;;;;;;;;;26.57;46.78;102298.03;4975384;28;19927;-64
2023/08/20 10:23:50;;;;;;;;;;;;;;;26.55;46.44;102290.19;5020827;28;19926;-64
2023/08/20 10:26:16;;;;;;;;;;;;;;;26.55;47.00;102292.03;4964740;28;20328;-64
2023/08/20 10:28:42;;;;;;;;;;;;;;;26.58;46.90;102297.88;5025282;28;20286;-65
2023/08/20 10:31:07;;;;;;;;;;;;;;;26.59;47.00;102293.34;4966880;28;19933;-65
2023/08/20 10:33:37;;;;;;;;;;;;;;;26.57;47.35;102296.22;5010236;28;19917;-65
2023/08/20 10:36:09;;;;;;;;;;;;;;;26.55;47.01;102300.06;5010346;28;19921;-65
2023/08/20 10:38:35;;;;;;;;;;;;;;;26.59;47.43;102290.69;4974530;28;19916;-68
2023/08/20 10:41:01;;;;;;;;;;;;;;;26.57;47.46;102296.22;5017711;28;19928;-67
2023/08/20 10:43:31;;;;;;;;;;;;;;;26.54;47.03;102293.06;4970646;28;19956;-67
2023/08/20 10:46:03;;;;;;;;;;;;;;;26.60;47.50;102281.63;5016673;28;19921;-68
2023/08/20 10:48:30;;;;;;;;;;;;;;;26.61;47.53;102281.44;4960347;28;19979;-67
2023/08/20 10:50:56;;;;;;;;;;;;;;;26.64;46.87;102277.56;5022806;28;19917;-68
2023/08/20 10:53:24;;;;;;;;;;;;;;;26.65;46.97;102271.19;5006312;28;20157;-67
2023/08/20 10:55:49;;;;;;;;;;;;;;;26.65;46.51;102284.56;5017947;28;19956;-67
2023/08/20 10:58:15;;;;;;;;;;;;;;;26.57;46.70;102263.28;4969518;28;19927;-67
2023/08/20 11:00:41;;;;;;;;;;;;;;;26.64;46.19;102281.06;5015263;28;20013;-67
2023/08/20 11:03:07;;;;;;;;;;;;;;;26.64;46.46;102272.22;4965937;28;19952;-67
2023/08/20 11:05:34;;;;;;;;;;;;;;;26.67;46.48;102271.84;5013992;28;19928;-67
2023/08/20 11:07:59;;;;;;;;;;;;;;;26.67;46.52;102277.19;4962874;28;20750;-66
2023/08/20 11:10:25;;;;;;;;;;;;;;;26.68;46.41;102278.84;5022355;28;20038;-65
2023/08/20 11:12:51;;;;;;;;;;;;;;;26.69;46.34;102277.81;5007715;28;20386;-65
2023/08/20 11:15:17;;;;;;;;;;;;;;;26.71;46.64;102271.25;5014718;28;19928;-66
2023/08/20 11:17:44;;;;;;;;;;;;;;;26.71;46.98;102281.94;4964387;28;19956;-66
2023/08/20 11:20:11;;;;;;;;;;;;;;;26.72;46.60;102283.59;5012658;28;19928;-66
2023/08/20 11:22:38;;;;;;;;;;;;;;;26.74;47.04;102286.06;4967760;28;19945;-64
2023/08/20 11:25:04;;;;;;;;;;;;;;;26.72;46.46;102286.28;5011485;28;19921;-64
2023/08/20 11:27:29;;;;;;;;;;;;;;;26.70;46.92;102284.81;4969794;28;19917;-64
2023/08/20 11:29:56;;;;;;;;;;;;;;;26.74;46.84;102288.75;5019909;28;19921;-64
2023/08/20 11:32:23;;;;;;;;;;;;;;;26.72;46.53;102286.28;4976447;28;19957;-64
2023/08/20 11:34:49;;;;;;;;;;;;;;;26.74;46.38;102284.22;5002954;28;19917;-64
2023/08/20 11:37:17;;;;;;;;;;;;;;;26.74;46.24;102278.06;5009312;28;20386;-65
2023/08/20 11:39:42;;;;;;;;;;;;;;;26.75;46.55;102283.25;4961144;28;25441;-64
2023/08/20 11:42:08;;;;;;;;;;;;;;;26.74;46.76;102278.88;5015393;28;19938;-64
2023/08/20 11:44:45;;;;;;;;;;;;;;;26.76;46.80;102286.75;4994861;28;19999;-65
2023/08/20 11:47:17;;;;;;;;;;;;;;;26.74;46.70;102286.91;5025747;28;19917;-68
2023/08/20 11:49:43;;;;;;;;;;;;;;;26.78;46.75;102290.03;4964060;28;20729;-67
2023/08/20 11:52:09;;;;;;;;;;;;;;;26.78;46.70;102284.69;5008713;28;19921;-68
2023/08/20 11:54:34;;;;;;;;;;;;;;;26.82;46.69;102285.97;5000369;28;19924;-67
2023/08/20 11:57:04;;;;;;;;;;;;;;;26.82;47.12;102287.81;5018684;28;19921;-68
2023/08/20 11:59:29;;;;;;;;;;;;;;;26.79;46.93;102284.50;4961880;28;19921;-66
2023/08/20 12:01:56;;;;;;;;;;;;;;;26.78;46.61;102282.03;5019317;28;19917;-66
2023/08/20 12:04:23;;;;;;;;;;;;;;;26.64;47.17;102249.00;4965505;28;19955;-66
2023/08/20 12:07:01;;;;;;;;;;;;;;;26.80;46.96;102285.31;5016179;28;19921;-66
2023/08/20 12:09:26;;;;;;;;;;;;;;;26.85;46.66;102274.06;4956607;28;19917;-67
2023/08/20 12:11:54;;;;;;;;;;;;;;;26.83;46.61;102276.09;4954551;28;20017;-67
2023/08/20 12:14:20;;;;;;;;;;;;;;;26.80;47.08;102274.63;5011567;28;19921;-70
2023/08/20 12:16:45;;;;;;;;;;;;;;;26.84;46.92;102275.06;4962529;28;19960;-68
2023/08/20 12:19:11;;;;;;;;;;;;;;;26.82;47.10;102272.59;5008431;28;20063;-67
2023/08/20 12:21:37;;;;;;;;;;;;;;;26.84;46.60;102275.91;4965376;28;19917;-66
2023/08/20 12:24:04;;;;;;;;;;;;;;;26.84;46.79;102275.06;5019780;28;20829;-67
2023/08/20 12:26:29;;;;;;;;;;;;;;;26.85;45.99;102274.88;4959239;28;19932;-66
2023/08/20 12:28:55;;;;;;;;;;;;;;;26.85;46.02;102276.72;5025674;28;19921;-66
2023/08/20 12:31:20;;;;;;;;;;;;;;;26.86;46.30;102273.03;5006539;28;19979;-70
2023/08/20 12:33:45;;;;;;;;;;;;;;;26.88;45.93;102261.13;5014327;28;19920;-73
2023/08/20 12:36:11;;;;;;;;;;;;;;;26.89;45.96;102272.66;4953992;28;20295;-72
2023/08/20 12:38:36;;;;;;;;;;;;;;;26.88;46.04;102276.34;5026761;28;19921;-73
2023/08/20 12:41:03;;;;;;;;;;;;;;;26.88;45.99;102273.66;4957747;28;19952;-70